createdAt,value
2023-08-05T04:02:06.145Z,23.90
2023-08-05T04:04:34.874Z,16.33
2023-08-05T04:07:01.974Z,16.67
2023-08-05T04:09:30.061Z,13.02
2023-08-05T04:12:05.238Z,11.20
2023-08-05T04:14:33.167Z,14.73
2023-08-05T04:17:04.070Z,11.55
2023-08-05T04:19:31.389Z,17.55
2023-08-05T04:22:00.548Z,17.10
2023-08-05T04:24:29.556Z,17.13
2023-08-05T04:26:59.395Z,13.75
2023-08-05T04:29:26.982Z,15.98
2023-08-05T04:31:54.614Z,15.52
2023-08-05T04:34:24.897Z,10.15
2023-08-05T04:36:53.193Z,13.18
2023-08-05T04:39:21.185Z,18.15
2023-08-05T04:41:48.553Z,15.45
2023-08-05T04:44:15.613Z,13.43
2023-08-05T04:46:42.605Z,13.65
2023-08-05T04:49:11.400Z,14.20
2023-08-05T04:51:38.960Z,19.05
2023-08-05T04:54:05.964Z,11.05
2023-08-05T04:56:34.632Z,10.43
2023-08-05T04:59:01.640Z,12.57
2023-08-05T05:01:29.833Z,10.90
2023-08-05T05:03:57.707Z,9.85
2023-08-05T05:06:25.396Z,16.52
2023-08-05T05:08:52.508Z,13.77
2023-08-05T05:11:19.601Z,17.23
2023-08-05T05:13:48.315Z,18.45
2023-08-05T05:16:15.275Z,15.35
2023-08-05T05:18:42.169Z,16.73
2023-08-05T05:21:09.121Z,14.32
2023-08-05T05:23:37.361Z,12.20
2023-08-05T05:26:04.265Z,22.27
2023-08-05T05:28:31.233Z,15.27
2023-08-05T05:30:59.448Z,12.02
2023-08-05T05:33:28.769Z,16.33
2023-08-05T05:35:55.748Z,42.60
2023-08-05T05:38:22.849Z,58.95
2023-08-05T05:40:49.910Z,57.78
2023-08-05T05:43:16.851Z,50.08
2023-08-05T05:45:45.651Z,38.97
2023-08-05T05:48:12.794Z,35.25
2023-08-05T05:50:42.301Z,37.47
2023-08-05T05:53:15.045Z,42.08
2023-08-05T05:55:42.960Z,19.30
2023-08-05T05:58:10.282Z,20.85
2023-08-05T06:00:40.381Z,31.58
2023-08-05T06:03:07.868Z,25.88
2023-08-05T06:05:35.039Z,24.80
2023-08-05T06:08:02.094Z,21.58
2023-08-05T06:10:29.088Z,24.25
2023-08-05T06:12:58.106Z,23.25
2023-08-05T06:15:25.269Z,21.10
2023-08-05T06:17:52.215Z,21.63
2023-08-05T06:20:19.308Z,15.63
2023-08-05T06:22:46.317Z,14.73
2023-08-05T06:25:13.995Z,16.50
2023-08-05T06:27:41.019Z,15.50
2023-08-05T06:30:09.483Z,21.15
2023-08-05T06:32:36.595Z,18.02
2023-08-05T06:35:03.811Z,20.08
2023-08-05T06:37:30.917Z,18.98
2023-08-05T06:39:57.873Z,27.35
2023-08-05T06:42:26.951Z,27.45
2023-08-05T06:44:55.308Z,17.73
2023-08-05T06:47:27.191Z,13.13
2023-08-05T06:49:54.126Z,16.67
2023-08-05T06:52:28.925Z,14.70
2023-08-05T06:54:57.105Z,13.80
2023-08-05T06:57:26.431Z,11.90
2023-08-05T06:59:54.734Z,11.25
2023-08-05T07:02:23.721Z,10.90
2023-08-05T07:04:51.040Z,8.38
2023-08-05T07:07:18.282Z,16.20
2023-08-05T07:09:49.013Z,12.63
2023-08-05T07:12:23.333Z,12.55
2023-08-05T07:14:50.438Z,9.80
2023-08-05T07:17:19.490Z,10.80
2023-08-05T07:19:46.525Z,11.23
2023-08-05T07:22:13.799Z,10.32
2023-08-05T07:24:40.832Z,8.80
2023-08-05T07:27:08.204Z,8.80
2023-08-05T07:29:42.025Z,10.52
2023-08-05T07:32:11.835Z,12.73
2023-08-05T07:34:39.272Z,9.90
2023-08-05T07:37:06.457Z,9.30
2023-08-05T07:39:37.359Z,10.23
2023-08-05T07:42:09.571Z,9.18
2023-08-05T07:44:40.703Z,8.23
2023-08-05T07:47:10.735Z,9.95
2023-08-05T07:49:42.759Z,9.68
2023-08-05T07:52:11.347Z,9.48
2023-08-05T07:54:40.641Z,9.65
2023-08-05T07:57:11.390Z,8.38
2023-08-05T07:59:41.630Z,11.43
2023-08-05T08:02:14.118Z,9.30
2023-08-05T08:04:49.329Z,7.50
2023-08-05T08:07:18.627Z,10.07
2023-08-05T08:09:48.814Z,7.93
2023-08-05T08:12:21.485Z,8.88
2023-08-05T08:14:53.361Z,9.63
2023-08-05T08:17:20.920Z,10.77
2023-08-05T08:19:47.972Z,10.35
2023-08-05T08:22:21.880Z,7.00
2023-08-05T08:24:51.040Z,7.65
2023-08-05T08:27:21.897Z,12.18
2023-08-05T08:29:54.532Z,10.43
2023-08-05T08:32:27.549Z,8.23
2023-08-05T08:34:59.512Z,10.40
2023-08-05T08:37:34.531Z,9.15
2023-08-05T08:40:05.417Z,9.90
2023-08-05T08:42:44.646Z,9.05
2023-08-05T08:45:41.480Z,9.20
2023-08-05T08:48:25.019Z,12.20
2023-08-05T08:51:00.732Z,7.45
2023-08-05T08:53:50.393Z,7.68
2023-08-05T08:56:52.602Z,10.27
2023-08-05T08:59:24.099Z,6.75
2023-08-05T09:02:02.110Z,9.55
2023-08-05T09:04:51.952Z,11.50
2023-08-05T09:07:35.849Z,9.93
2023-08-05T09:10:19.642Z,9.48
2023-08-05T09:12:57.303Z,12.65
2023-08-05T09:16:04.307Z,7.25
2023-08-05T09:18:38.661Z,7.38
2023-08-05T09:22:04.891Z,11.73
2023-08-05T09:24:51.504Z,8.52
2023-08-05T09:27:27.558Z,9.60
2023-08-05T09:31:09.076Z,11.15
2023-08-05T09:33:36.119Z,8.27
2023-08-05T09:36:15.590Z,7.72
2023-08-05T09:38:48.597Z,9.80
2023-08-05T09:41:30.634Z,7.78
2023-08-05T09:44:00.145Z,9.90
2023-08-05T09:46:48.358Z,12.93
2023-08-05T09:49:24.285Z,10.18
2023-08-05T09:51:54.852Z,9.52
2023-08-05T09:54:36.241Z,8.52
2023-08-05T09:57:10.999Z,8.82
2023-08-05T09:59:43.072Z,10.63
2023-08-05T10:02:14.142Z,7.22
2023-08-05T10:04:45.042Z,9.07
2023-08-05T10:07:14.466Z,6.13
2023-08-05T10:09:47.097Z,6.82
2023-08-05T10:12:20.302Z,9.45
2023-08-05T10:14:58.814Z,8.45
2023-08-05T10:17:29.570Z,8.07
2023-08-05T10:19:56.834Z,5.80
2023-08-05T10:22:29.111Z,17.73
2023-08-05T10:25:01.543Z,10.18
2023-08-05T10:27:38.474Z,7.13
2023-08-05T10:30:18.273Z,8.93
2023-08-05T10:32:56.488Z,9.00
2023-08-05T10:35:41.377Z,10.63
2023-08-05T10:38:20.975Z,6.25
2023-08-05T10:40:53.159Z,7.85
2023-08-05T10:43:34.753Z,6.65
2023-08-05T10:46:07.661Z,6.80
2023-08-05T10:48:48.567Z,6.00
2023-08-05T10:51:22.123Z,8.63
2023-08-05T10:53:57.776Z,9.20
2023-08-05T10:56:37.989Z,9.10
2023-08-05T10:59:11.354Z,8.38
2023-08-05T11:02:01.461Z,12.25
2023-08-05T11:04:30.695Z,6.07
2023-08-05T11:07:03.222Z,9.02
2023-08-05T11:09:42.191Z,8.23
2023-08-05T11:14:43.196Z,6.97
2023-08-05T11:17:16.540Z,7.15
2023-08-05T11:22:30.880Z,8.57
2023-08-05T11:25:00.145Z,9.70
2023-08-05T11:27:40.840Z,8.15
2023-08-05T11:30:18.375Z,6.63
2023-08-05T11:32:55.898Z,8.75
2023-08-05T11:35:24.621Z,7.95
2023-08-05T11:37:55.272Z,6.45
2023-08-05T11:40:24.089Z,7.38
2023-08-05T11:42:59.626Z,10.77
2023-08-05T11:45:28.081Z,5.87
2023-08-05T11:47:58.158Z,7.20
2023-08-05T11:50:40.286Z,9.27
2023-08-05T11:53:14.990Z,10.43
2023-08-05T11:55:50.641Z,12.60
2023-08-05T12:01:04.750Z,7.47
2023-08-05T12:03:38.315Z,9.35
2023-08-05T12:06:05.839Z,7.50
2023-08-05T12:08:47.405Z,10.18
2023-08-05T12:11:16.916Z,10.98
2023-08-05T12:13:46.669Z,10.95
2023-08-05T12:16:16.806Z,8.02
2023-08-05T12:18:47.247Z,7.80
2023-08-05T12:21:15.838Z,6.20
2023-08-05T12:23:47.232Z,7.55
2023-08-05T12:26:19.825Z,9.48
2023-08-05T12:28:51.844Z,10.05
2023-08-05T12:31:39.790Z,7.25
2023-08-05T12:34:14.257Z,6.35
2023-08-05T12:36:44.728Z,8.57
2023-08-05T12:39:14.354Z,10.05
2023-08-05T12:41:44.531Z,8.27
2023-08-05T12:44:14.848Z,7.72
2023-08-05T12:46:52.035Z,8.98
2023-08-05T12:49:20.242Z,8.20
2023-08-05T12:51:52.541Z,8.95
2023-08-05T12:54:22.611Z,7.68
2023-08-05T12:56:49.762Z,6.88
2023-08-05T12:59:17.093Z,7.55
2023-08-05T13:01:47.385Z,7.88
2023-08-05T13:04:14.628Z,8.10
2023-08-05T13:06:41.701Z,9.52
2023-08-05T13:09:11.646Z,8.32
2023-08-05T13:12:03.583Z,7.60
2023-08-05T13:14:30.658Z,6.40
2023-08-05T13:16:57.615Z,7.88
2023-08-05T13:19:24.591Z,7.95
2023-08-05T13:21:51.620Z,6.85
2023-08-05T13:24:19.094Z,6.32
2023-08-05T13:26:46.164Z,7.57
2023-08-05T13:29:13.070Z,6.07
2023-08-05T13:31:40.052Z,7.25
2023-08-05T13:34:07.132Z,9.00
2023-08-05T13:36:34.104Z,7.88
2023-08-05T13:39:03.845Z,7.25
2023-08-05T13:41:31.207Z,7.68
2023-08-05T13:43:58.406Z,8.75
2023-08-05T13:46:25.606Z,7.75
2023-08-05T13:48:52.666Z,7.97
2023-08-05T13:51:19.883Z,9.35
2023-08-05T13:53:49.161Z,6.35
2023-08-05T13:56:16.178Z,6.47
2023-08-05T13:58:43.100Z,9.10
2023-08-05T14:01:15.695Z,7.45
2023-08-05T14:03:43.047Z,5.35
2023-08-05T14:06:10.212Z,8.48
2023-08-05T14:08:39.398Z,8.20
2023-08-05T14:11:07.746Z,10.15
2023-08-05T14:13:34.981Z,4.97
2023-08-05T14:16:02.023Z,5.50
2023-08-05T14:18:29.126Z,6.90
2023-08-05T14:20:56.148Z,7.05
2023-08-05T14:23:23.589Z,8.15
2023-08-05T14:25:50.655Z,7.45
2023-08-05T14:28:19.228Z,8.82
2023-08-05T14:30:49.744Z,9.27
2023-08-05T14:33:16.982Z,7.22
2023-08-05T14:35:47.180Z,6.57
2023-08-05T14:38:14.480Z,9.77
2023-08-05T14:40:42.817Z,7.88
2023-08-05T14:43:09.831Z,5.88
2023-08-05T14:45:42.786Z,5.45
2023-08-05T14:48:10.078Z,11.00
2023-08-05T14:50:38.600Z,7.25
2023-08-05T14:53:06.193Z,7.90
2023-08-05T14:55:35.973Z,6.18
2023-08-05T14:58:03.114Z,5.70
2023-08-05T15:00:30.785Z,6.70
2023-08-05T15:02:58.229Z,5.65
2023-08-05T15:05:28.191Z,6.45
2023-08-05T15:07:55.194Z,5.70
2023-08-05T15:10:23.013Z,8.18
2023-08-05T15:12:50.642Z,10.65
2023-08-05T15:15:18.090Z,6.95
2023-08-05T15:17:45.152Z,5.88
2023-08-05T15:20:14.800Z,6.53
2023-08-05T15:22:45.177Z,6.18
2023-08-05T15:25:15.539Z,5.55
2023-08-05T15:27:54.454Z,7.70
2023-08-05T15:30:29.055Z,7.43
2023-08-05T15:33:19.403Z,6.97
2023-08-05T15:35:54.374Z,10.82
2023-08-05T15:38:23.699Z,8.52
2023-08-05T15:40:59.027Z,11.50
2023-08-05T15:43:26.020Z,8.75
2023-08-05T15:45:57.508Z,7.15
2023-08-05T15:48:26.946Z,6.63
2023-08-05T15:50:54.384Z,6.53
2023-08-05T15:53:32.441Z,8.20
2023-08-05T15:56:11.345Z,8.07
2023-08-05T15:58:46.069Z,9.55
2023-08-05T16:01:19.014Z,7.50
2023-08-05T16:03:47.361Z,6.50
2023-08-05T16:06:23.786Z,5.97
2023-08-05T16:09:16.737Z,5.95
2023-08-05T16:11:44.132Z,7.07
2023-08-05T16:14:11.648Z,7.13
2023-08-05T16:16:41.124Z,6.38
2023-08-05T16:19:12.196Z,8.77
2023-08-05T16:21:39.167Z,8.02
2023-08-05T16:24:09.339Z,6.53
2023-08-05T16:26:36.852Z,9.32
2023-08-05T16:29:05.218Z,6.82
2023-08-05T16:31:40.061Z,7.57
2023-08-05T16:34:07.151Z,6.72
2023-08-05T16:36:34.146Z,8.95
2023-08-05T16:39:05.047Z,7.82
2023-08-05T16:41:39.678Z,8.48
2023-08-05T16:44:11.275Z,10.50
2023-08-05T16:46:48.084Z,6.68
2023-08-05T16:49:26.026Z,9.73
2023-08-05T16:51:53.361Z,5.63
2023-08-05T16:54:42.571Z,7.93
2023-08-05T16:57:12.347Z,10.10
2023-08-05T16:59:41.873Z,8.32
2023-08-05T17:02:11.939Z,7.47
2023-08-05T17:04:59.544Z,7.85
2023-08-05T17:07:31.934Z,11.32
2023-08-05T17:09:58.863Z,8.90
2023-08-05T17:12:59.680Z,9.15
2023-08-05T17:15:27.164Z,9.63
2023-08-05T17:17:56.856Z,7.80
2023-08-05T17:20:37.804Z,7.97
2023-08-05T17:23:20.559Z,8.05
2023-08-05T17:25:47.940Z,9.90
2023-08-05T17:28:50.293Z,6.43
2023-08-05T17:31:28.903Z,7.53
2023-08-05T17:36:48.705Z,7.40
2023-08-05T17:39:18.747Z,8.52
2023-08-05T17:41:45.920Z,8.02
2023-08-05T17:44:16.923Z,8.02
2023-08-05T17:46:49.538Z,6.43
2023-08-05T17:52:09.933Z,6.43
2023-08-05T17:54:36.975Z,11.63
2023-08-05T17:57:53.893Z,7.97
2023-08-05T18:00:29.342Z,10.25
2023-08-05T18:03:08.132Z,6.00
2023-08-05T18:08:55.327Z,8.50
2023-08-05T18:11:32.453Z,9.00
2023-08-05T18:14:02.366Z,9.10
2023-08-05T18:16:29.582Z,9.32
2023-08-05T18:19:20.506Z,8.20
2023-08-05T18:25:57.811Z,9.32
2023-08-05T18:28:50.818Z,7.20
2023-08-05T18:34:07.119Z,9.43
2023-08-05T18:35:23.974Z,13.35
2023-08-05T18:37:55.850Z,8.40
2023-08-05T18:40:52.956Z,14.90
2023-08-05T18:43:45.174Z,9.00
2023-08-05T18:50:56.902Z,8.15
2023-08-05T18:53:38.458Z,9.02
2023-08-05T18:56:15.009Z,7.85
2023-08-05T18:58:44.264Z,13.15
2023-08-05T19:01:26.733Z,12.40
2023-08-05T19:03:58.582Z,9.65
2023-08-05T19:06:38.538Z,7.97
2023-08-05T19:09:08.008Z,7.78
2023-08-05T19:11:41.472Z,7.88
2023-08-05T19:17:23.380Z,9.45
2023-08-05T19:19:52.327Z,7.40
2023-08-05T19:22:54.882Z,7.82
2023-08-05T19:25:25.405Z,8.00
2023-08-05T19:27:59.410Z,10.48
2023-08-05T19:30:26.879Z,7.82
2023-08-05T19:32:56.616Z,8.18
2023-08-05T19:35:32.117Z,7.13
2023-08-05T19:38:01.919Z,15.20
2023-08-05T19:40:35.627Z,10.55
2023-08-05T19:43:36.545Z,10.10
2023-08-05T19:46:25.395Z,10.80
2023-08-05T19:49:14.843Z,11.05
2023-08-05T19:51:50.523Z,13.02
2023-08-05T19:54:24.649Z,7.70
2023-08-05T19:57:12.892Z,8.90
2023-08-05T19:59:45.975Z,7.18
2023-08-05T20:02:24.784Z,9.68
2023-08-05T20:05:19.689Z,7.95
2023-08-05T20:07:51.416Z,8.50
2023-08-05T20:10:21.788Z,9.10
2023-08-05T20:12:50.822Z,10.43
2023-08-05T20:15:18.652Z,6.78
2023-08-05T20:17:53.233Z,9.68
2023-08-05T20:20:26.687Z,8.65
2023-08-05T20:22:56.302Z,9.02
2023-08-05T20:25:29.279Z,11.63
2023-08-05T20:27:58.552Z,11.10
2023-08-05T20:30:29.612Z,9.82
2023-08-05T20:32:57.230Z,11.15
2023-08-05T20:35:27.018Z,8.88
2023-08-05T20:37:56.568Z,10.80
2023-08-05T20:40:26.339Z,9.57
2023-08-05T20:42:57.524Z,0.80
2023-08-05T20:45:38.653Z,1.70
2023-08-05T20:48:17.608Z,1.42
2023-08-05T20:50:48.053Z,0.28
2023-08-05T20:53:16.968Z,2.05
2023-08-05T20:55:44.181Z,0.45
2023-08-05T20:58:15.460Z,0.52
2023-08-05T21:00:44.883Z,1.85
2023-08-05T21:03:17.529Z,8.60
2023-08-05T21:05:47.021Z,1.15
2023-08-05T21:08:14.104Z,0.57
2023-08-05T21:10:41.107Z,1.95
2023-08-05T21:13:08.118Z,0.95
2023-08-05T21:15:36.736Z,0.55
2023-08-05T21:18:03.966Z,1.27
2023-08-05T21:20:33.520Z,1.00
2023-08-05T21:23:02.618Z,3.65
2023-08-05T21:25:29.620Z,2.40
2023-08-05T21:27:56.662Z,0.30
2023-08-05T21:30:26.573Z,0.82
2023-08-05T21:32:56.831Z,1.63
2023-08-05T21:35:51.154Z,2.78
2023-08-05T21:38:30.472Z,0.82
2023-08-05T21:41:15.087Z,1.23
2023-08-05T21:43:47.704Z,0.57
2023-08-05T21:46:28.830Z,2.28
2023-08-05T21:49:02.697Z,2.40
2023-08-05T21:51:43.035Z,1.08
2023-08-05T21:54:10.513Z,4.80
2023-08-05T21:56:40.046Z,1.30
2023-08-05T21:59:10.103Z,1.05
2023-08-05T22:01:48.808Z,0.45
2023-08-05T22:04:23.505Z,1.45
2023-08-05T22:09:19.810Z,0.90
2023-08-05T22:11:50.146Z,0.73
2023-08-05T22:14:17.421Z,0.95
2023-08-05T22:16:47.002Z,1.95
2023-08-05T22:19:14.158Z,2.00
2023-08-05T22:21:41.204Z,1.00
2023-08-05T22:24:08.136Z,2.53
2023-08-05T22:26:35.196Z,0.50
2023-08-05T22:29:02.232Z,0.95
2023-08-05T22:31:29.207Z,1.50
2023-08-05T22:33:56.125Z,0.63
2023-08-05T22:36:23.041Z,1.33
2023-08-05T22:38:50.069Z,1.25
2023-08-05T22:41:17.021Z,0.80
2023-08-05T22:43:44.070Z,1.63
